createdAt,value
2016-06-28T00:00:42.820Z,99.99
2016-06-28T00:01:43.046Z,99.99
2016-06-28T00:02:42.794Z,99.99
2016-06-28T00:03:42.844Z,99.99
2016-06-28T00:04:42.807Z,99.99
2016-06-28T00:05:42.805Z,99.99
2016-06-28T00:06:42.844Z,99.99
2016-06-28T00:07:42.819Z,99.99
2016-06-28T00:08:42.782Z,99.99
2016-06-28T00:09:42.840Z,99.99
2016-06-28T00:10:42.805Z,99.99
2016-06-28T00:11:42.802Z,99.99
2016-06-28T00:12:42.805Z,99.99
2016-06-28T00:13:42.776Z,99.99
2016-06-28T00:14:42.818Z,99.99
2016-06-28T00:15:42.806Z,99.99
2016-06-28T00:16:42.806Z,99.99
2016-06-28T00:17:42.805Z,99.99
2016-06-28T00:18:42.805Z,99.99
2016-06-28T00:19:42.830Z,99.99
2016-06-28T00:20:42.802Z,99.99
2016-06-28T00:21:42.797Z,99.99
2016-06-28T00:22:42.818Z,99.99
2016-06-28T00:23:42.881Z,99.99
2016-06-28T00:24:42.790Z,99.99
2016-06-28T00:25:42.820Z,99.99
2016-06-28T00:26:42.798Z,99.99
2016-06-28T00:27:42.830Z,99.99
2016-06-28T00:28:42.795Z,99.99
2016-06-28T00:29:42.803Z,99.99
2016-06-28T00:30:42.829Z,99.99
2016-06-28T00:31:42.805Z,99.99
2016-06-28T00:32:42.814Z,99.99
2016-06-28T00:33:42.931Z,99.99
2016-06-28T00:34:42.836Z,99.99
2016-06-28T00:35:42.834Z,99.99
2016-06-28T00:36:42.878Z,99.99
2016-06-28T00:37:42.819Z,99.99
2016-06-28T00:38:42.803Z,99.99
2016-06-28T00:39:42.841Z,99.99
2016-06-28T00:40:42.812Z,99.99
2016-06-28T00:41:42.822Z,99.99
2016-06-28T00:42:42.850Z,99.99
2016-06-28T00:43:42.836Z,99.99
2016-06-28T00:44:42.831Z,99.99
2016-06-28T00:45:42.986Z,99.99
2016-06-28T00:46:42.850Z,99.99
2016-06-28T00:47:42.832Z,99.99
2016-06-28T00:48:42.821Z,99.99
2016-06-28T00:49:42.830Z,99.99
2016-06-28T00:50:42.838Z,99.99
2016-06-28T00:51:42.849Z,99.99
2016-06-28T00:52:42.818Z,99.99
2016-06-28T00:53:42.836Z,99.99
2016-06-28T00:54:42.833Z,99.99
2016-06-28T00:55:42.834Z,99.99
2016-06-28T00:56:42.859Z,99.99
2016-06-28T00:57:42.843Z,99.99
2016-06-28T00:58:42.846Z,99.99
2016-06-28T00:59:42.835Z,99.99
2016-06-28T01:00:42.838Z,99.99
2016-06-28T01:01:42.838Z,99.99
2016-06-28T01:02:42.856Z,99.99
2016-06-28T01:03:43.011Z,99.99
2016-06-28T01:04:42.907Z,99.99
2016-06-28T01:05:42.856Z,99.99
2016-06-28T01:06:42.837Z,99.99
2016-06-28T01:07:42.854Z,99.99
2016-06-28T01:08:42.845Z,99.99
2016-06-28T01:09:42.832Z,99.99
2016-06-28T01:10:42.832Z,99.99
2016-06-28T01:11:42.855Z,99.99
2016-06-28T01:12:43.151Z,99.99
2016-06-28T01:13:42.837Z,99.99
2016-06-28T01:14:42.845Z,99.99
2016-06-28T01:15:42.853Z,99.99
2016-06-28T01:16:42.853Z,99.99
2016-06-28T01:17:42.894Z,99.99
2016-06-28T01:18:43.764Z,99.99
2016-06-28T01:19:42.899Z,99.99
2016-06-28T01:20:42.869Z,99.99
2016-06-28T01:21:42.849Z,99.99
2016-06-28T01:22:42.874Z,99.99
2016-06-28T01:23:42.893Z,99.99
2016-06-28T01:24:42.892Z,99.99
2016-06-28T01:25:42.855Z,99.99
2016-06-28T01:26:42.864Z,99.99
2016-06-28T01:27:43.222Z,99.99
2016-06-28T01:28:42.878Z,99.99
2016-06-28T01:29:42.873Z,99.99
2016-06-28T01:30:42.868Z,99.99
2016-06-28T01:31:42.860Z,99.99
2016-06-28T01:32:42.871Z,99.99
2016-06-28T01:33:42.916Z,99.99
2016-06-28T01:34:42.883Z,99.99
2016-06-28T01:35:42.878Z,99.99
2016-06-28T01:36:43.843Z,99.99
2016-06-28T01:37:42.860Z,99.99
2016-06-28T01:38:42.882Z,99.99
2016-06-28T01:39:43.284Z,99.99
2016-06-28T01:40:42.877Z,99.99
2016-06-28T01:41:42.865Z,99.99
2016-06-28T01:42:42.861Z,99.99
2016-06-28T01:43:42.857Z,99.99
2016-06-28T01:44:42.910Z,99.99
2016-06-28T01:45:43.012Z,99.99
2016-06-28T01:46:42.887Z,99.99
2016-06-28T01:47:42.875Z,99.99
2016-06-28T01:48:43.201Z,99.99
2016-06-28T01:49:42.896Z,99.99
2016-06-28T01:50:42.863Z,99.99
2016-06-28T01:51:43.390Z,99.99
2016-06-28T01:52:42.904Z,99.99
2016-06-28T01:53:42.925Z,99.99
2016-06-28T01:54:42.902Z,99.99
2016-06-28T01:55:42.874Z,99.99
2016-06-28T01:56:42.877Z,99.99
2016-06-28T01:57:42.869Z,99.99
2016-06-28T01:58:42.897Z,99.99
2016-06-28T01:59:42.866Z,99.99
2016-06-28T02:00:42.873Z,99.99
2016-06-28T02:01:42.911Z,99.99
2016-06-28T02:02:42.886Z,99.99
2016-06-28T02:03:43.749Z,99.99
2016-06-28T02:04:42.887Z,99.99
2016-06-28T02:05:42.905Z,99.99
2016-06-28T02:06:42.903Z,99.99
2016-06-28T02:07:42.884Z,99.99
2016-06-28T02:08:42.890Z,99.99
2016-06-28T02:09:42.869Z,99.99
2016-06-28T02:10:42.881Z,99.99
2016-06-28T02:11:42.885Z,99.99
2016-06-28T02:12:42.878Z,99.99
2016-06-28T02:13:42.885Z,99.99
2016-06-28T02:14:42.894Z,99.99
2016-06-28T02:15:43.106Z,99.99
2016-06-28T02:16:42.894Z,99.99
2016-06-28T02:17:42.920Z,99.99
2016-06-28T02:18:43.217Z,99.99
2016-06-28T02:19:42.884Z,99.99
2016-06-28T02:20:42.890Z,99.99
2016-06-28T02:21:43.276Z,99.99
2016-06-28T02:22:42.892Z,99.99
2016-06-28T02:23:42.902Z,99.99
2016-06-28T02:24:42.895Z,99.99
2016-06-28T02:25:42.941Z,99.99
2016-06-28T02:26:42.913Z,99.99
2016-06-28T02:27:42.944Z,99.99
2016-06-28T02:28:42.906Z,99.99
2016-06-28T02:29:42.914Z,99.99
2016-06-28T02:30:43.052Z,99.99
2016-06-28T02:31:43.234Z,99.99
2016-06-28T02:32:42.913Z,99.99
2016-06-28T02:33:42.943Z,99.99
2016-06-28T02:34:42.898Z,99.99
2016-06-28T02:35:42.906Z,99.99
2016-06-28T02:36:43.112Z,99.99
2016-06-28T02:37:42.920Z,99.99
2016-06-28T02:38:42.915Z,99.99
2016-06-28T02:39:42.918Z,99.99
2016-06-28T02:40:42.924Z,99.99
2016-06-28T02:41:42.965Z,99.99
2016-06-28T02:42:42.949Z,99.99
2016-06-28T02:43:42.924Z,99.99
2016-06-28T02:44:42.934Z,99.99
2016-06-28T02:45:43.154Z,99.99
2016-06-28T02:46:42.927Z,99.99
2016-06-28T02:47:42.918Z,99.99
2016-06-28T02:48:42.911Z,99.99
2016-06-28T02:49:42.935Z,99.99
2016-06-28T02:50:42.973Z,99.99
2016-06-28T02:51:42.915Z,99.99
2016-06-28T02:52:42.915Z,99.99
2016-06-28T02:53:42.911Z,99.99
2016-06-28T02:54:42.934Z,99.99
2016-06-28T02:55:42.927Z,99.99
2016-06-28T02:56:42.921Z,99.99
2016-06-28T02:57:42.913Z,99.99
2016-06-28T02:58:42.917Z,99.99
2016-06-28T02:59:42.910Z,99.99
2016-06-28T03:00:43.110Z,99.99
2016-06-28T03:01:42.919Z,99.99
2016-06-28T03:02:42.920Z,99.99
2016-06-28T03:03:43.505Z,99.99
2016-06-28T03:04:42.946Z,99.99
2016-06-28T03:05:42.932Z,99.99
2016-06-28T03:06:42.926Z,99.99
2016-06-28T03:07:42.946Z,99.99
2016-06-28T03:08:42.943Z,99.99
2016-06-28T03:09:42.947Z,99.99
2016-06-28T03:10:42.946Z,99.99
2016-06-28T03:11:42.944Z,99.99
2016-06-28T03:12:42.921Z,99.99
2016-06-28T03:13:42.926Z,99.99
2016-06-28T03:14:42.920Z,99.99
2016-06-28T03:15:42.931Z,99.99
2016-06-28T03:16:42.951Z,99.99
2016-06-28T03:17:42.925Z,99.99
2016-06-28T03:18:43.011Z,99.99
2016-06-28T03:19:42.927Z,99.99
2016-06-28T03:20:42.951Z,99.99
2016-06-28T03:21:42.944Z,99.99
2016-06-28T03:22:42.963Z,99.99
2016-06-28T03:23:42.957Z,99.99
2016-06-28T03:24:42.990Z,99.99
2016-06-28T03:25:42.926Z,99.99
2016-06-28T03:26:42.950Z,99.99
2016-06-28T03:27:42.940Z,99.99
2016-06-28T03:28:42.974Z,99.99
2016-06-28T03:29:43.014Z,99.99
2016-06-28T03:30:42.950Z,99.99
2016-06-28T03:31:42.938Z,99.99
2016-06-28T03:32:42.949Z,99.99
2016-06-28T03:33:42.952Z,99.99
2016-06-28T03:34:42.950Z,99.99
2016-06-28T03:35:43.029Z,99.99
2016-06-28T03:36:42.987Z,99.99
2016-06-28T03:37:42.962Z,99.99
2016-06-28T03:38:42.946Z,99.99
2016-06-28T03:39:42.993Z,99.99
2016-06-28T03:40:42.963Z,99.99
2016-06-28T03:41:42.992Z,99.99
2016-06-28T03:42:42.951Z,99.99
2016-06-28T03:43:43.007Z,99.99
2016-06-28T03:44:42.947Z,99.99
2016-06-28T03:45:42.960Z,99.99
2016-06-28T03:46:42.952Z,99.99
2016-06-28T03:47:42.982Z,99.99
2016-06-28T03:48:42.976Z,99.99
2016-06-28T03:49:42.946Z,99.99
2016-06-28T03:50:42.976Z,99.99
2016-06-28T03:51:42.979Z,99.99
2016-06-28T03:52:42.949Z,99.99
2016-06-28T03:53:43.039Z,99.99
2016-06-28T03:54:42.960Z,99.99
2016-06-28T03:55:42.987Z,99.99
2016-06-28T03:56:42.960Z,99.99
2016-06-28T03:57:42.968Z,99.99
2016-06-28T03:58:42.996Z,99.99
2016-06-28T03:59:43.494Z,99.99
2016-06-28T04:00:42.966Z,99.99
2016-06-28T04:01:42.971Z,99.99
2016-06-28T04:02:42.978Z,99.99
2016-06-28T04:03:42.986Z,99.99
2016-06-28T04:04:42.963Z,99.99
2016-06-28T04:05:43.724Z,99.99
2016-06-28T04:06:42.987Z,99.99
2016-06-28T04:07:42.997Z,99.99
2016-06-28T04:08:42.992Z,99.99
2016-06-28T04:09:42.990Z,99.99
2016-06-28T04:10:42.979Z,99.99
2016-06-28T04:11:43.042Z,99.99
2016-06-28T04:12:43.006Z,99.99
2016-06-28T04:13:42.995Z,99.99
2016-06-28T04:14:43.004Z,99.99
2016-06-28T04:15:43.001Z,99.99
2016-06-28T04:16:43.011Z,99.99
2016-06-28T04:17:42.980Z,99.99
2016-06-28T04:18:43.002Z,99.99
2016-06-28T04:19:42.980Z,99.99
2016-06-28T04:20:42.998Z,99.99
2016-06-28T04:21:43.013Z,99.99
2016-06-28T04:22:42.995Z,99.99
2016-06-28T04:23:42.987Z,99.99
2016-06-28T04:24:42.996Z,99.99
2016-06-28T04:25:43.005Z,99.99
2016-06-28T04:26:43.014Z,99.99
2016-06-28T04:27:43.029Z,99.99
2016-06-28T04:28:42.998Z,99.99
2016-06-28T04:29:43.034Z,99.99
2016-06-28T04:30:43.012Z,99.99
2016-06-28T04:31:42.986Z,99.99
2016-06-28T04:32:43.009Z,99.99
2016-06-28T04:33:43.038Z,99.99
2016-06-28T04:34:43.015Z,99.99
2016-06-28T04:36:06.769Z,99.99
2016-06-28T04:36:43.849Z,99.99
2016-06-28T04:38:05.451Z,99.99
2016-06-28T04:39:06.442Z,99.99
2016-06-28T04:40:05.152Z,99.99
2016-06-28T04:40:50.360Z,99.99
2016-06-28T04:42:08.286Z,99.99
2016-06-28T04:43:30.718Z,99.99
2016-06-28T04:44:53.688Z,99.99
2016-06-28T04:46:18.397Z,99.99
2016-06-28T04:47:40.555Z,99.99
2016-06-28T04:49:02.531Z,99.99
2016-06-28T04:50:24.508Z,99.99
2016-06-28T04:51:49.364Z,99.99
2016-06-28T04:53:12.858Z,99.99
2016-06-28T04:54:34.581Z,99.99
2016-06-28T04:55:54.139Z,99.99
2016-06-28T04:56:54.064Z,99.99
2016-06-28T04:58:08.703Z,99.99
2016-06-28T04:59:24.040Z,99.99
2016-06-28T05:00:39.585Z,99.99
2016-06-28T05:01:17.662Z,99.99
2016-06-28T05:02:17.655Z,99.99
2016-06-28T05:03:17.722Z,99.99
2016-06-28T05:04:17.708Z,99.99
2016-06-28T05:05:17.690Z,99.99
2016-06-28T05:06:17.637Z,99.99
2016-06-28T05:07:17.659Z,99.99
2016-06-28T05:08:17.669Z,99.99
2016-06-28T05:09:17.673Z,99.99
2016-06-28T05:10:17.677Z,99.99
2016-06-28T05:11:17.658Z,99.99
2016-06-28T05:12:17.648Z,99.99
2016-06-28T05:13:17.658Z,99.99
2016-06-28T05:14:17.635Z,99.99
2016-06-28T05:15:17.675Z,99.99
2016-06-28T05:16:17.716Z,99.99
2016-06-28T05:17:17.673Z,99.99
2016-06-28T05:18:17.682Z,99.99
2016-06-28T05:19:17.673Z,99.99
2016-06-28T05:20:17.662Z,99.99
2016-06-28T05:21:17.645Z,99.99
2016-06-28T05:22:17.666Z,99.99
2016-06-28T05:23:17.675Z,99.99
2016-06-28T05:24:17.662Z,99.99
2016-06-28T05:25:17.666Z,99.99
2016-06-28T05:26:17.666Z,99.99
2016-06-28T05:27:17.689Z,99.99
2016-06-28T05:28:17.666Z,99.99
2016-06-28T05:29:17.657Z,99.99
2016-06-28T05:30:17.675Z,99.99
2016-06-28T05:31:17.669Z,99.99
2016-06-28T05:32:17.655Z,99.99
2016-06-28T05:33:17.673Z,99.99
2016-06-28T05:34:17.652Z,99.99
2016-06-28T05:35:17.679Z,99.99
2016-06-28T05:36:17.707Z,99.99
2016-06-28T05:37:17.698Z,99.99
2016-06-28T05:38:17.669Z,99.99
2016-06-28T05:39:17.703Z,99.99
2016-06-28T05:40:17.703Z,99.99
2016-06-28T05:41:17.703Z,99.99
2016-06-28T05:42:17.713Z,99.99
2016-06-28T05:43:17.672Z,99.99
2016-06-28T05:44:17.670Z,99.99
2016-06-28T05:45:17.697Z,99.99
2016-06-28T05:46:17.662Z,99.99
2016-06-28T05:47:17.715Z,99.99
2016-06-28T05:48:17.686Z,99.99
2016-06-28T05:49:17.688Z,99.99
2016-06-28T05:50:17.672Z,99.99
2016-06-28T05:51:18.431Z,99.99
2016-06-28T05:52:17.681Z,99.99
2016-06-28T05:53:17.698Z,99.99
2016-06-28T05:54:17.677Z,99.99
2016-06-28T05:55:17.668Z,99.99
2016-06-28T05:56:17.702Z,99.99
2016-06-28T05:57:17.678Z,99.99
2016-06-28T05:58:17.734Z,99.99
2016-06-28T05:59:17.923Z,99.99
2016-06-28T06:00:17.722Z,99.99
2016-06-28T06:01:17.685Z,99.99
2016-06-28T06:02:17.802Z,99.99
2016-06-28T06:03:17.704Z,99.99
2016-06-28T06:04:17.707Z,99.99
2016-06-28T06:05:17.679Z,99.99
2016-06-28T06:06:17.695Z,99.99
2016-06-28T06:07:17.722Z,99.99
2016-06-28T06:08:17.985Z,99.99
2016-06-28T06:09:17.686Z,99.99
2016-06-28T06:10:17.690Z,99.99
2016-06-28T06:11:17.743Z,99.99
2016-06-28T06:12:17.762Z,99.99
2016-06-28T06:13:17.715Z,99.99
2016-06-28T06:14:17.682Z,99.99
2016-06-28T06:15:17.787Z,99.99
2016-06-28T06:16:17.728Z,99.99
2016-06-28T06:17:17.699Z,99.99
2016-06-28T06:18:17.728Z,99.99
2016-06-28T06:19:17.757Z,99.99
2016-06-28T06:20:17.689Z,99.99
2016-06-28T06:21:17.729Z,99.99
2016-06-28T06:22:17.718Z,99.99
2016-06-28T06:23:17.741Z,99.99
2016-06-28T06:24:17.778Z,99.99
2016-06-28T06:25:19.046Z,99.99
2016-06-28T06:26:18.237Z,99.99
2016-06-28T06:27:17.754Z,95.36
2016-06-28T06:28:18.464Z,93
2016-06-28T06:29:17.781Z,90.06
2016-06-28T06:30:17.817Z,86.92
2016-06-28T06:31:17.897Z,85.13
2016-06-28T06:32:17.969Z,85.71
2016-06-28T06:33:18.714Z,81.7
2016-06-28T06:34:17.801Z,78.75
2016-06-28T06:35:18.481Z,76.18
2016-06-28T06:36:17.726Z,76.57
2016-06-28T06:37:19.343Z,76.9
2016-06-28T06:38:17.735Z,76.7
2016-06-28T06:39:17.754Z,76.26
2016-06-28T06:40:17.757Z,70.78
2016-06-28T06:41:17.733Z,69.72
2016-06-28T06:42:17.744Z,70.43
2016-06-28T06:43:17.759Z,71.4
2016-06-28T06:44:17.742Z,67.46
2016-06-28T06:45:17.729Z,67.56
2016-06-28T06:46:17.747Z,65.66
2016-06-28T06:47:17.759Z,65.47
2016-06-28T06:48:17.756Z,64.53
2016-06-28T06:49:17.742Z,61.82
2016-06-28T06:50:17.744Z,61.72
2016-06-28T06:51:17.763Z,61.07
2016-06-28T06:52:17.737Z,58.74
2016-06-28T06:53:17.726Z,60.58
2016-06-28T06:54:17.736Z,60.61
2016-06-28T06:55:17.736Z,57.8
2016-06-28T06:56:17.733Z,54.11
2016-06-28T06:57:17.728Z,56.45
2016-06-28T06:58:18.225Z,55.57
2016-06-28T06:59:17.766Z,53.27
2016-06-28T07:00:17.750Z,53.85
2016-06-28T07:01:17.773Z,53.95
2016-06-28T07:02:17.761Z,52.59
2016-06-28T07:03:17.822Z,53.17
2016-06-28T07:04:17.787Z,52.13
2016-06-28T07:05:17.801Z,50.51
2016-06-28T07:06:17.753Z,50.21
2016-06-28T07:07:17.786Z,50.89
2016-06-28T07:08:17.762Z,50.7
2016-06-28T07:09:17.754Z,46.64
2016-06-28T07:10:17.751Z,46.45
2016-06-28T07:11:17.757Z,46.64
2016-06-28T07:12:17.747Z,47.01
2016-06-28T07:13:18.690Z,47.4
2016-06-28T07:14:17.762Z,48.66
2016-06-28T07:15:17.845Z,46.81
2016-06-28T07:16:17.749Z,47.59
2016-06-28T07:17:17.769Z,48.68
2016-06-28T07:18:17.828Z,48
2016-06-28T07:19:18.940Z,48.39
2016-06-28T07:20:18.842Z,47.61
2016-06-28T07:21:17.890Z,47.74
2016-06-28T07:22:17.819Z,46.55
2016-06-28T07:23:17.866Z,44.89
2016-06-28T07:24:17.834Z,45.77
2016-06-28T07:25:17.794Z,46.64
2016-06-28T07:26:17.805Z,46.81
2016-06-28T07:27:17.790Z,46.98
2016-06-28T07:28:17.799Z,47.45
2016-06-28T07:29:17.804Z,46.58
2016-06-28T07:30:17.782Z,47.86
2016-06-28T07:31:17.836Z,47.66
2016-06-28T07:32:17.822Z,48.05
2016-06-28T07:33:17.991Z,46.96
2016-06-28T07:34:17.946Z,48.97
2016-06-28T07:35:17.841Z,50.31
2016-06-28T07:36:17.827Z,49.8
2016-06-28T07:37:18.011Z,49.8
2016-06-28T07:38:17.996Z,49.87
2016-06-28T07:39:17.894Z,50.62
2016-06-28T07:40:17.882Z,52.44
2016-06-28T07:41:17.987Z,54.85
2016-06-28T07:42:17.942Z,55.6
2016-06-28T07:43:17.823Z,56.09
2016-06-28T07:44:18.790Z,55.99
2016-06-28T07:45:18.814Z,57.05
2016-06-28T07:46:17.849Z,56.35
2016-06-28T07:47:17.853Z,55.41
2016-06-28T07:48:18.627Z,52.51
2016-06-28T07:49:17.903Z,53.19
2016-06-28T07:50:17.885Z,50.48
2016-06-28T07:51:17.808Z,51.83
2016-06-28T07:52:17.849Z,50.86
2016-06-28T07:53:17.849Z,52.99
2016-06-28T07:54:17.838Z,50.76
2016-06-28T07:55:19.757Z,53.09
2016-06-28T07:56:17.854Z,53.47
2016-06-28T07:57:17.949Z,53.19
2016-06-28T07:58:17.864Z,50.48
2016-06-28T07:59:18.017Z,48.59
2016-06-28T08:00:17.810Z,48.79
2016-06-28T08:01:18.413Z,48.83
2016-06-28T08:02:17.863Z,49.8
2016-06-28T08:03:17.840Z,49.51
2016-06-28T08:04:17.855Z,47.3
2016-06-28T08:05:17.838Z,47.72
2016-06-28T08:06:17.828Z,48.42
2016-06-28T08:07:17.847Z,46.19
2016-06-28T08:08:17.841Z,46.5
2016-06-28T08:09:17.845Z,47.72
2016-06-28T08:10:17.895Z,47.52
2016-06-28T08:11:17.839Z,47.89
2016-06-28T08:12:17.836Z,49.05
2016-06-28T08:13:17.838Z,50.6
2016-06-28T08:14:17.861Z,49.44
2016-06-28T08:15:17.839Z,48.76
2016-06-28T08:16:17.869Z,48.27
2016-06-28T08:17:17.831Z,49.05
2016-06-28T08:18:17.919Z,49.05
2016-06-28T08:19:17.810Z,48.76
2016-06-28T08:20:17.858Z,50.29
2016-06-28T08:21:17.818Z,50.29
2016-06-28T08:22:17.860Z,50.48
2016-06-28T08:23:17.830Z,49.61
2016-06-28T08:24:17.834Z,50.38
2016-06-28T08:25:17.907Z,50.87
2016-06-28T08:26:17.883Z,50.09
2016-06-28T08:27:17.955Z,49.9
2016-06-28T08:28:17.872Z,50.09
2016-06-28T08:29:17.853Z,50.16
2016-06-28T08:30:17.962Z,51.62
2016-06-28T08:31:17.961Z,49.61
2016-06-28T08:32:17.877Z,48.83
2016-06-28T08:33:17.882Z,49.19
2016-06-28T08:34:17.935Z,49.29
2016-06-28T08:35:17.911Z,50.55
2016-06-28T08:36:17.866Z,49.49
2016-06-28T08:37:17.895Z,50.72
2016-06-28T08:38:17.972Z,50.92
2016-06-28T08:39:17.878Z,50.02
2016-06-28T08:40:17.896Z,50.89
2016-06-28T08:41:17.903Z,50.98
2016-06-28T08:42:17.853Z,50.98
2016-06-28T08:43:17.899Z,52.63
2016-06-28T08:44:17.874Z,52.14
2016-06-28T08:45:17.919Z,49.82
2016-06-28T08:46:17.871Z,50.79
2016-06-28T08:47:17.906Z,51.66
2016-06-28T08:48:17.876Z,52.92
2016-06-28T08:49:17.896Z,53.57
2016-06-28T08:50:18.016Z,53.89
2016-06-28T08:51:17.919Z,55.05
2016-06-28T08:52:17.917Z,53.79
2016-06-28T08:53:18.948Z,53.79
2016-06-28T08:54:17.875Z,53.89
2016-06-28T08:55:17.984Z,54.27
2016-06-28T08:56:17.951Z,53.14
2016-06-28T08:57:17.872Z,52.66
2016-06-28T08:58:17.967Z,52.36
2016-06-28T08:59:17.858Z,49.65
2016-06-28T09:00:17.958Z,50.62
2016-06-28T09:01:17.901Z,50.52
2016-06-28T09:02:17.887Z,51.1
2016-06-28T09:03:17.895Z,50.62
2016-06-28T09:04:17.934Z,48.88
2016-06-28T09:05:17.922Z,48.81
2016-06-28T09:06:17.889Z,53.14
2016-06-28T09:07:19.668Z,53.81
2016-06-28T09:08:17.903Z,50.62
2016-06-28T09:09:17.879Z,48.69
2016-06-28T09:10:17.913Z,48.76
2016-06-28T09:11:17.897Z,49.05
2016-06-28T09:12:19.731Z,49.54
2016-06-28T09:13:17.887Z,50.79
2016-06-28T09:14:17.905Z,54.08
2016-06-28T09:15:17.886Z,53.72
2016-06-28T09:16:17.902Z,52.66
2016-06-28T09:17:17.926Z,50.52
2016-06-28T09:18:17.913Z,48.3
2016-06-28T09:19:17.961Z,47.55
2016-06-28T09:20:17.900Z,46.67
2016-06-28T09:21:17.918Z,46.58
2016-06-28T09:22:17.932Z,43.87
2016-06-28T09:23:17.919Z,43.87
2016-06-28T09:24:17.938Z,43.55
2016-06-28T09:25:17.919Z,43.46
2016-06-28T09:26:17.913Z,45.68
2016-06-28T09:27:17.926Z,44.72
2016-06-28T09:28:17.987Z,44.54
2016-06-28T09:29:17.906Z,45.4
2016-06-28T09:30:17.898Z,44.64
2016-06-28T09:31:17.911Z,42.8
2016-06-28T09:32:17.913Z,42.68
2016-06-28T09:33:18.662Z,45.3
2016-06-28T09:34:17.906Z,45.81
2016-06-28T09:35:17.900Z,46.66
2016-06-28T09:36:17.923Z,47.84
2016-06-28T09:37:17.927Z,48.32
2016-06-28T09:38:17.987Z,49.19
2016-06-28T09:39:17.894Z,50.65
2016-06-28T09:40:17.909Z,47.91
2016-06-28T09:41:17.943Z,47.45
2016-06-28T09:42:17.939Z,48.59
2016-06-28T09:43:17.916Z,49.46
2016-06-28T09:44:17.931Z,47.52
2016-06-28T09:45:17.954Z,46.92
2016-06-28T09:46:17.935Z,46.83
2016-06-28T09:47:17.961Z,47.5
2016-06-28T09:48:17.934Z,47.69
2016-06-28T09:49:17.935Z,46.51
2016-06-28T09:50:18.885Z,48.64
2016-06-28T09:51:17.919Z,51.06
2016-06-28T09:52:17.928Z,52.22
2016-06-28T09:53:17.949Z,49.02
2016-06-28T09:54:17.939Z,48.61
2016-06-28T09:55:17.947Z,47.36
2016-06-28T09:56:17.960Z,49.51
2016-06-28T09:57:17.976Z,50.35
2016-06-28T09:58:18.017Z,49.39
2016-06-28T09:59:17.961Z,50.55
2016-06-28T10:00:17.976Z,50.43
2016-06-28T10:01:17.956Z,50.74
2016-06-28T10:02:18.062Z,50.26
2016-06-28T10:03:17.971Z,52
2016-06-28T10:04:17.934Z,51.23
2016-06-28T10:05:17.975Z,51.01
2016-06-28T10:06:17.966Z,51.2
2016-06-28T10:07:17.966Z,49.58
2016-06-28T10:08:18.167Z,52.45
2016-06-28T10:09:18.000Z,53.71
2016-06-28T10:10:17.949Z,53.23
2016-06-28T10:11:17.951Z,53.23
2016-06-28T10:12:18.036Z,52.65
2016-06-28T10:13:17.986Z,52.75
2016-06-28T10:14:17.990Z,51.97
2016-06-28T10:15:17.969Z,54.49
2016-06-28T10:16:17.982Z,54.39
2016-06-28T10:17:17.981Z,53.81
2016-06-28T10:18:17.973Z,53.33
2016-06-28T10:19:17.983Z,51.29
2016-06-28T10:20:17.963Z,51.46
2016-06-28T10:21:18.046Z,49.95
2016-06-28T10:22:17.997Z,51.97
2016-06-28T10:23:17.980Z,53.91
2016-06-28T10:24:17.964Z,54.1
2016-06-28T10:25:17.967Z,53.61
2016-06-28T10:26:17.971Z,55.45
2016-06-28T10:27:18.015Z,54.32
2016-06-28T10:28:17.977Z,51.29
2016-06-28T10:29:18.009Z,51.2
2016-06-28T10:30:17.986Z,51.23
2016-06-28T10:31:18.006Z,53.03
2016-06-28T10:32:17.987Z,54.58
2016-06-28T10:33:17.977Z,54.71
2016-06-28T10:34:17.984Z,55.19
2016-06-28T10:35:17.995Z,54.71
2016-06-28T10:36:17.975Z,53.45
2016-06-28T10:37:17.979Z,54.22
2016-06-28T10:38:18.030Z,52.97
2016-06-28T10:39:18.065Z,53.06
2016-06-28T10:40:17.997Z,52.29
2016-06-28T10:41:17.960Z,51.71
2016-06-28T10:42:17.991Z,52.45
2016-06-28T10:43:18.100Z,52.84
2016-06-28T10:44:18.009Z,52.97
2016-06-28T10:45:18.016Z,53.16
2016-06-28T10:46:18.045Z,52.67
2016-06-28T10:47:18.017Z,50.55
2016-06-28T10:48:18.007Z,51.03
2016-06-28T10:49:18.039Z,50.55
2016-06-28T10:50:17.983Z,51.13
2016-06-28T10:51:17.995Z,52.29
2016-06-28T10:52:18.607Z,53.74
2016-06-28T10:53:18.032Z,52.7
2016-06-28T10:54:17.994Z,51.73
2016-06-28T10:55:18.015Z,52.99
2016-06-28T10:56:17.999Z,52.8
2016-06-28T10:57:18.731Z,52.41
2016-06-28T10:58:18.069Z,52.05
2016-06-28T10:59:18.015Z,51.56
2016-06-28T11:00:17.994Z,47.31
2016-06-28T11:01:17.998Z,47.62
2016-06-28T11:02:18.012Z,48.49
2016-06-28T11:03:18.027Z,48.69
2016-06-28T11:04:18.004Z,50.52
2016-06-28T11:05:18.032Z,49.85
2016-06-28T11:06:18.027Z,50.43
2016-06-28T11:07:18.039Z,50.43
2016-06-28T11:08:18.023Z,48.49
2016-06-28T11:09:17.993Z,47.43
2016-06-28T11:10:18.022Z,46.66
2016-06-28T11:11:18.016Z,49.46
2016-06-28T11:12:18.002Z,48.49
2016-06-28T11:13:18.071Z,49.77
2016-06-28T11:14:18.043Z,50.35
2016-06-28T11:15:18.015Z,50.26
2016-06-28T11:16:18.020Z,52.1
2016-06-28T11:17:18.072Z,49.68
2016-06-28T11:18:18.039Z,48.52
2016-06-28T11:19:18.033Z,49.87
2016-06-28T11:20:18.031Z,48.61
2016-06-28T11:21:18.026Z,48.22
2016-06-28T11:22:18.078Z,48.71
2016-06-28T11:23:18.062Z,48.79
2016-06-28T11:24:18.050Z,48.59
2016-06-28T11:25:18.076Z,46.84
2016-06-28T11:26:18.027Z,46.75
2016-06-28T11:27:18.056Z,47.52
2016-06-28T11:28:18.063Z,48.13
2016-06-28T11:29:18.027Z,48.61
2016-06-28T11:30:18.039Z,47.55
2016-06-28T11:31:18.046Z,49.27
2016-06-28T11:32:18.071Z,49.37
2016-06-28T11:33:18.049Z,49.56
2016-06-28T11:34:18.030Z,50.52
2016-06-28T11:35:18.067Z,49.95
2016-06-28T11:36:18.055Z,49.56
2016-06-28T11:37:18.032Z,47.64
2016-06-28T11:38:18.050Z,47.45
2016-06-28T11:39:18.059Z,48.71
2016-06-28T11:40:18.045Z,48.9
2016-06-28T11:41:18.077Z,48.61
2016-06-28T11:42:18.077Z,48.61
2016-06-28T11:43:18.053Z,48.74
2016-06-28T11:44:18.045Z,48.25
2016-06-28T11:45:18.057Z,48.95
2016-06-28T11:46:18.058Z,48.57
2016-06-28T11:47:18.090Z,47.69
2016-06-28T11:48:18.051Z,48.59
2016-06-28T11:49:18.041Z,47.62
2016-06-28T11:50:18.069Z,45.78
2016-06-28T11:51:18.063Z,47.33
2016-06-28T11:52:18.086Z,46.67
2016-06-28T11:53:18.069Z,48.8
2016-06-28T11:54:18.097Z,47.52
2016-06-28T11:55:18.112Z,45.7
2016-06-28T11:56:18.058Z,45.51
2016-06-28T11:57:18.074Z,44.05
2016-06-28T11:58:18.106Z,43.26
2016-06-28T11:59:18.092Z,45.1
2016-06-28T12:00:18.075Z,46.94
2016-06-28T12:01:18.075Z,46.26
2016-06-28T12:02:18.080Z,46.14
2016-06-28T12:03:18.054Z,47.11
2016-06-28T12:04:18.082Z,47.2
2016-06-28T12:05:18.087Z,46.04
2016-06-28T12:06:18.079Z,47.4
2016-06-28T12:07:18.065Z,46.33
2016-06-28T12:08:18.058Z,45.85
2016-06-28T12:09:18.069Z,47.5
2016-06-28T12:10:18.145Z,46.22
2016-06-28T12:11:18.074Z,44.96
2016-06-28T12:12:18.076Z,45.75
2016-06-28T12:13:18.101Z,45.37
2016-06-28T12:14:18.139Z,45.56
2016-06-28T12:15:18.061Z,45.27
2016-06-28T12:16:18.068Z,44.3
2016-06-28T12:17:18.090Z,47.89
2016-06-28T12:18:18.085Z,47.57
2016-06-28T12:19:18.088Z,48.18
2016-06-28T12:20:18.109Z,47.02
2016-06-28T12:21:18.112Z,48.95
2016-06-28T12:22:18.083Z,46.82
2016-06-28T12:23:18.061Z,47.28
2016-06-28T12:24:18.076Z,47.67
2016-06-28T12:25:18.105Z,47.02
2016-06-28T12:26:18.083Z,45.65
2016-06-28T12:27:18.083Z,48.37
2016-06-28T12:28:18.134Z,44.01
2016-06-28T12:29:18.077Z,44.1
2016-06-28T12:30:18.087Z,43.62
2016-06-28T12:31:18.104Z,45.58
2016-06-28T12:32:18.086Z,44.42
2016-06-28T12:33:18.109Z,44.81
2016-06-28T12:34:18.091Z,43.84
2016-06-28T12:35:18.107Z,43.84
2016-06-28T12:36:18.105Z,46.94
2016-06-28T12:37:18.084Z,46.75
2016-06-28T12:38:18.115Z,47.72
2016-06-28T12:39:18.124Z,47.62
2016-06-28T12:40:18.118Z,45.29
2016-06-28T12:41:18.165Z,47.74
2016-06-28T12:42:18.147Z,46.75
2016-06-28T12:43:18.125Z,47.81
2016-06-28T12:44:18.099Z,48.59
2016-06-28T12:45:18.155Z,48.49
2016-06-28T12:46:18.106Z,45.87
2016-06-28T12:47:18.130Z,46.75
2016-06-28T12:48:18.211Z,45.56
2016-06-28T12:49:18.134Z,44.49
2016-06-28T12:50:18.104Z,44.2
2016-06-28T12:51:18.141Z,45.07
2016-06-28T12:52:18.153Z,46.51
2016-06-28T12:53:18.127Z,45.83
2016-06-28T12:54:18.387Z,45.85
2016-06-28T12:55:19.032Z,45.85
2016-06-28T12:56:18.129Z,45.27
2016-06-28T12:57:18.161Z,45.64
2016-06-28T12:58:18.215Z,46.72
2016-06-28T12:59:18.214Z,45.47